sensor_id;sensor_type;location;lat;lon;timestamp;temperature;humidity
27922;DHT22;15261;50.356;10.340;2023-01-25T00:02:02;2.20;99.90
27922;DHT22;15261;50.356;10.340;2023-01-25T00:04:28;1.90;99.90
27922;DHT22;15261;50.356;10.340;2023-01-25T00:06:54;1.80;99.90
27922;DHT22;15261;50.356;10.340;2023-01-25T00:09:43;1.80;99.90
27922;DHT22;15261;50.356;10.340;2023-01-25T00:12:08;1.90;99.90
27922;DHT22;15261;50.356;10.340;2023-01-25T00:14:34;1.90;99.90
27922;DHT22;15261;50.356;10.340;2023-01-25T00:16:59;1.90;99.90
27922;DHT22;15261;50.356;10.340;2023-01-25T00:19:25;1.80;99.90
27922;DHT22;15261;50.356;10.340;2023-01-25T00:21:51;1.70;99.90
27922;DHT22;15261;50.356;10.340;2023-01-25T00:24:16;1.80;99.90
27922;DHT22;15261;50.356;10.340;2023-01-25T00:26:42;1.80;99.90
27922;DHT22;15261;50.356;10.340;2023-01-25T00:29:12;1.80;99.90
27922;DHT22;15261;50.356;10.340;2023-01-25T00:39:16;1.60;99.90
27922;DHT22;15261;50.356;10.340;2023-01-25T00:41:42;1.40;99.90
27922;DHT22;15261;50.356;10.340;2023-01-25T00:44:08;1.50;99.90
27922;DHT22;15261;50.356;10.340;2023-01-25T00:46:34;1.70;99.90
27922;DHT22;15261;50.356;10.340;2023-01-25T00:48:59;1.70;99.90
27922;DHT22;15261;50.356;10.340;2023-01-25T00:51:25;1.80;99.90
27922;DHT22;15261;50.356;10.340;2023-01-25T00:53:51;1.70;99.90
27922;DHT22;15261;50.356;10.340;2023-01-25T00:56:17;1.70;99.90
27922;DHT22;15261;50.356;10.340;2023-01-25T00:58:42;1.80;99.90
27922;DHT22;15261;50.356;10.340;2023-01-25T01:01:08;1.90;99.90
27922;DHT22;15261;50.356;10.340;2023-01-25T01:03:34;1.90;99.90
27922;DHT22;15261;50.356;10.340;2023-01-25T01:06:05;1.90;99.90
27922;DHT22;15261;50.356;10.340;2023-01-25T01:08:37;1.90;99.90
27922;DHT22;15261;50.356;10.340;2023-01-25T01:11:06;1.90;99.90
27922;DHT22;15261;50.356;10.340;2023-01-25T01:13:32;2.00;99.90
27922;DHT22;15261;50.356;10.340;2023-01-25T01:16:03;2.00;99.90
27922;DHT22;15261;50.356;10.340;2023-01-25T01:18:36;2.00;99.90
27922;DHT22;15261;50.356;10.340;2023-01-25T01:21:02;1.80;99.90
27922;DHT22;15261;50.356;10.340;2023-01-25T01:23:28;1.70;99.90
27922;DHT22;15261;50.356;10.340;2023-01-25T01:25:54;1.80;99.90
27922;DHT22;15261;50.356;10.340;2023-01-25T01:28:20;1.70;99.90
27922;DHT22;15261;50.356;10.340;2023-01-25T01:30:45;1.80;99.90
27922;DHT22;15261;50.356;10.340;2023-01-25T01:33:11;1.90;99.90
27922;DHT22;15261;50.356;10.340;2023-01-25T01:35:36;2.00;99.90
27922;DHT22;15261;50.356;10.340;2023-01-25T01:38:02;2.00;99.90
27922;DHT22;15261;50.356;10.340;2023-01-25T01:40:28;2.00;99.90
27922;DHT22;15261;50.356;10.340;2023-01-25T01:43:00;2.00;99.90
27922;DHT22;15261;50.356;10.340;2023-01-25T01:48:14;2.10;99.90
27922;DHT22;15261;50.356;10.340;2023-01-25T01:50:41;2.10;99.90
27922;DHT22;15261;50.356;10.340;2023-01-25T01:53:07;2.10;99.90
27922;DHT22;15261;50.356;10.340;2023-01-25T01:55:33;1.90;99.90
27922;DHT22;15261;50.356;10.340;2023-01-25T01:57:58;1.70;99.90
27922;DHT22;15261;50.356;10.340;2023-01-25T02:00:28;1.70;99.90
27922;DHT22;15261;50.356;10.340;2023-01-25T02:02:55;1.80;99.90
27922;DHT22;15261;50.356;10.340;2023-01-25T02:05:26;1.70;99.90
27922;DHT22;15261;50.356;10.340;2023-01-25T02:07:55;1.80;99.90
27922;DHT22;15261;50.356;10.340;2023-01-25T02:10:22;1.80;99.90
27922;DHT22;15261;50.356;10.340;2023-01-25T02:12:51;1.70;99.90
27922;DHT22;15261;50.356;10.340;2023-01-25T02:15:17;1.60;99.90
27922;DHT22;15261;50.356;10.340;2023-01-25T02:17:42;1.70;99.90
27922;DHT22;15261;50.356;10.340;2023-01-25T02:20:10;1.80;99.90
27922;DHT22;15261;50.356;10.340;2023-01-25T02:22:53;1.80;99.90
27922;DHT22;15261;50.356;10.340;2023-01-25T02:25:20;1.60;99.90
27922;DHT22;15261;50.356;10.340;2023-01-25T02:30:39;1.30;99.90
27922;DHT22;15261;50.356;10.340;2023-01-25T02:33:05;1.40;99.90
27922;DHT22;15261;50.356;10.340;2023-01-25T02:35:47;1.40;99.90
27922;DHT22;15261;50.356;10.340;2023-01-25T02:38:16;1.50;99.90
27922;DHT22;15261;50.356;10.340;2023-01-25T02:41:00;1.60;99.90
27922;DHT22;15261;50.356;10.340;2023-01-25T02:43:29;1.70;99.90
27922;DHT22;15261;50.356;10.340;2023-01-25T02:46:11;1.70;99.90
27922;DHT22;15261;50.356;10.340;2023-01-25T02:48:38;1.70;99.90
27922;DHT22;15261;50.356;10.340;2023-01-25T02:51:06;1.80;99.90
27922;DHT22;15261;50.356;10.340;2023-01-25T02:53:32;1.80;99.90
27922;DHT22;15261;50.356;10.340;2023-01-25T02:55:58;1.80;99.90
27922;DHT22;15261;50.356;10.340;2023-01-25T02:58:23;1.80;99.90
27922;DHT22;15261;50.356;10.340;2023-01-25T03:00:49;1.80;99.90
27922;DHT22;15261;50.356;10.340;2023-01-25T03:03:15;1.70;99.90
27922;DHT22;15261;50.356;10.340;2023-01-25T03:05:40;1.70;99.90
27922;DHT22;15261;50.356;10.340;2023-01-25T03:08:06;1.70;99.90
27922;DHT22;15261;50.356;10.340;2023-01-25T03:10:31;1.70;99.90
27922;DHT22;15261;50.356;10.340;2023-01-25T03:12:57;1.70;99.90
27922;DHT22;15261;50.356;10.340;2023-01-25T03:15:22;1.70;99.90
27922;DHT22;15261;50.356;10.340;2023-01-25T03:21:13;1.60;99.90
27922;DHT22;15261;50.356;10.340;2023-01-25T03:23:39;1.70;99.90
27922;DHT22;15261;50.356;10.340;2023-01-25T03:26:17;1.70;99.90
27922;DHT22;15261;50.356;10.340;2023-01-25T03:28:43;1.70;99.90
27922;DHT22;15261;50.356;10.340;2023-01-25T03:31:11;1.70;99.90
27922;DHT22;15261;50.356;10.340;2023-01-25T03:33:36;1.60;99.90
27922;DHT22;15261;50.356;10.340;2023-01-25T03:36:03;1.60;99.90
27922;DHT22;15261;50.356;10.340;2023-01-25T03:38:29;1.50;99.90
27922;DHT22;15261;50.356;10.340;2023-01-25T03:40:55;1.50;99.90
27922;DHT22;15261;50.356;10.340;2023-01-25T03:43:21;1.50;99.90
27922;DHT22;15261;50.356;10.340;2023-01-25T03:45:54;1.50;99.90
27922;DHT22;15261;50.356;10.340;2023-01-25T03:48:21;1.60;99.90
27922;DHT22;15261;50.356;10.340;2023-01-25T03:50:51;1.50;99.90
27922;DHT22;15261;50.356;10.340;2023-01-25T03:53:21;1.30;99.90
27922;DHT22;15261;50.356;10.340;2023-01-25T03:56:04;1.40;99.90
27922;DHT22;15261;50.356;10.340;2023-01-25T03:58:33;1.50;99.90
27922;DHT22;15261;50.356;10.340;2023-01-25T04:01:00;1.40;99.90
27922;DHT22;15261;50.356;10.340;2023-01-25T04:03:26;1.40;99.90
27922;DHT22;15261;50.356;10.340;2023-01-25T04:05:53;1.40;99.90
27922;DHT22;15261;50.356;10.340;2023-01-25T04:08:19;1.30;99.90
27922;DHT22;15261;50.356;10.340;2023-01-25T04:11:02;1.20;99.90
27922;DHT22;15261;50.356;10.340;2023-01-25T04:13:28;1.20;99.90
27922;DHT22;15261;50.356;10.340;2023-01-25T04:15:54;1.30;99.90
27922;DHT22;15261;50.356;10.340;2023-01-25T04:18:20;1.20;99.90
27922;DHT22;15261;50.356;10.340;2023-01-25T04:20:52;1.30;99.90
27922;DHT22;15261;50.356;10.340;2023-01-25T04:23:18;1.30;99.90
27922;DHT22;15261;50.356;10.340;2023-01-25T04:25:52;1.40;99.90
27922;DHT22;15261;50.356;10.340;2023-01-25T04:28:17;1.50;99.90
27922;DHT22;15261;50.356;10.340;2023-01-25T04:30:44;1.50;99.90
27922;DHT22;15261;50.356;10.340;2023-01-25T04:33:09;1.40;99.90
27922;DHT22;15261;50.356;10.340;2023-01-25T04:35:36;1.40;99.90
27922;DHT22;15261;50.356;10.340;2023-01-25T04:38:02;1.40;99.90
27922;DHT22;15261;50.356;10.340;2023-01-25T04:40:28;1.50;99.90
27922;DHT22;15261;50.356;10.340;2023-01-25T04:42:53;1.50;99.90
27922;DHT22;15261;50.356;10.340;2023-01-25T04:45:19;1.50;99.90
27922;DHT22;15261;50.356;10.340;2023-01-25T04:47:44;1.50;99.90
27922;DHT22;15261;50.356;10.340;2023-01-25T04:50:10;1.50;99.90
27922;DHT22;15261;50.356;10.340;2023-01-25T04:52:36;1.60;99.90
27922;DHT22;15261;50.356;10.340;2023-01-25T04:55:01;1.30;99.90
27922;DHT22;15261;50.356;10.340;2023-01-25T04:57:27;1.20;99.90
27922;DHT22;15261;50.356;10.340;2023-01-25T04:59:52;1.20;99.90
27922;DHT22;15261;50.356;10.340;2023-01-25T05:02:18;1.00;99.90
27922;DHT22;15261;50.356;10.340;2023-01-25T05:04:43;0.80;99.90
27922;DHT22;15261;50.356;10.340;2023-01-25T05:07:09;1.00;99.90
27922;DHT22;15261;50.356;10.340;2023-01-25T05:09:34;1.00;99.90
27922;DHT22;15261;50.356;10.340;2023-01-25T05:12:00;1.10;99.90
27922;DHT22;15261;50.356;10.340;2023-01-25T05:14:25;1.10;99.90
27922;DHT22;15261;50.356;10.340;2023-01-25T05:16:51;1.30;99.90
27922;DHT22;15261;50.356;10.340;2023-01-25T05:19:16;1.40;99.90
27922;DHT22;15261;50.356;10.340;2023-01-25T05:21:42;1.50;99.90
27922;DHT22;15261;50.356;10.340;2023-01-25T05:24:30;1.50;99.90
27922;DHT22;15261;50.356;10.340;2023-01-25T05:26:56;1.60;99.90
27922;DHT22;15261;50.356;10.340;2023-01-25T05:32:48;1.70;99.90
27922;DHT22;15261;50.356;10.340;2023-01-25T05:35:15;1.70;99.90
27922;DHT22;15261;50.356;10.340;2023-01-25T05:37:41;1.70;99.90
27922;DHT22;15261;50.356;10.340;2023-01-25T05:40:07;1.70;99.90
27922;DHT22;15261;50.356;10.340;2023-01-25T05:45:51;1.50;99.90
27922;DHT22;15261;50.356;10.340;2023-01-25T05:48:16;1.50;99.90
27922;DHT22;15261;50.356;10.340;2023-01-25T05:50:42;1.50;99.90
27922;DHT22;15261;50.356;10.340;2023-01-25T05:53:07;1.50;99.90
27922;DHT22;15261;50.356;10.340;2023-01-25T05:55:34;1.60;99.90
27922;DHT22;15261;50.356;10.340;2023-01-25T05:58:00;1.60;99.90
27922;DHT22;15261;50.356;10.340;2023-01-25T06:00:26;1.60;99.90
27922;DHT22;15261;50.356;10.340;2023-01-25T06:02:51;1.50;99.90
27922;DHT22;15261;50.356;10.340;2023-01-25T06:05:22;1.50;99.90
27922;DHT22;15261;50.356;10.340;2023-01-25T06:07:48;1.40;99.90
27922;DHT22;15261;50.356;10.340;2023-01-25T06:10:13;1.40;99.90
27922;DHT22;15261;50.356;10.340;2023-01-25T06:12:39;1.30;99.90
27922;DHT22;15261;50.356;10.340;2023-01-25T06:15:05;1.40;99.90
27922;DHT22;15261;50.356;10.340;2023-01-25T06:17:30;1.30;99.90
27922;DHT22;15261;50.356;10.340;2023-01-25T06:19:56;1.20;99.90
27922;DHT22;15261;50.356;10.340;2023-01-25T06:22:21;1.20;99.90
27922;DHT22;15261;50.356;10.340;2023-01-25T06:24:47;1.20;99.90
27922;DHT22;15261;50.356;10.340;2023-01-25T06:27:13;1.10;99.90
27922;DHT22;15261;50.356;10.340;2023-01-25T06:29:38;1.10;99.90
27922;DHT22;15261;50.356;10.340;2023-01-25T06:32:04;1.20;99.90
27922;DHT22;15261;50.356;10.340;2023-01-25T06:34:29;1.20;99.90
27922;DHT22;15261;50.356;10.340;2023-01-25T06:36:55;1.30;99.90
27922;DHT22;15261;50.356;10.340;2023-01-25T06:39:20;1.40;99.90
27922;DHT22;15261;50.356;10.340;2023-01-25T06:41:46;1.30;99.90
27922;DHT22;15261;50.356;10.340;2023-01-25T06:44:11;1.30;99.90
27922;DHT22;15261;50.356;10.340;2023-01-25T06:46:37;1.30;99.90
27922;DHT22;15261;50.356;10.340;2023-01-25T06:49:04;1.30;99.90
27922;DHT22;15261;50.356;10.340;2023-01-25T06:51:29;1.20;99.90
27922;DHT22;15261;50.356;10.340;2023-01-25T06:53:55;1.20;99.90
27922;DHT22;15261;50.356;10.340;2023-01-25T06:56:21;1.30;99.90
27922;DHT22;15261;50.356;10.340;2023-01-25T06:58:47;1.20;99.90
27922;DHT22;15261;50.356;10.340;2023-01-25T07:01:18;1.40;99.90
27922;DHT22;15261;50.356;10.340;2023-01-25T07:03:52;1.20;99.90
27922;DHT22;15261;50.356;10.340;2023-01-25T07:06:19;1.30;99.90
27922;DHT22;15261;50.356;10.340;2023-01-25T07:08:45;1.30;99.90
27922;DHT22;15261;50.356;10.340;2023-01-25T07:11:11;1.30;99.90
27922;DHT22;15261;50.356;10.340;2023-01-25T07:13:41;1.30;99.90
27922;DHT22;15261;50.356;10.340;2023-01-25T07:16:11;1.30;99.90
27922;DHT22;15261;50.356;10.340;2023-01-25T07:18:37;1.20;99.90
27922;DHT22;15261;50.356;10.340;2023-01-25T07:21:12;1.20;99.90
27922;DHT22;15261;50.356;10.340;2023-01-25T07:23:38;1.10;99.90
27922;DHT22;15261;50.356;10.340;2023-01-25T07:26:05;1.00;99.90
27922;DHT22;15261;50.356;10.340;2023-01-25T07:28:31;0.90;99.90
27922;DHT22;15261;50.356;10.340;2023-01-25T07:31:06;0.90;99.90
27922;DHT22;15261;50.356;10.340;2023-01-25T07:33:33;0.90;99.90
27922;DHT22;15261;50.356;10.340;2023-01-25T07:36:03;0.90;99.90
27922;DHT22;15261;50.356;10.340;2023-01-25T07:38:30;1.10;99.90
27922;DHT22;15261;50.356;10.340;2023-01-25T07:40:55;1.10;99.90
27922;DHT22;15261;50.356;10.340;2023-01-25T07:43:22;1.00;99.90
27922;DHT22;15261;50.356;10.340;2023-01-25T07:45:47;1.10;99.90
27922;DHT22;15261;50.356;10.340;2023-01-25T07:48:14;1.10;99.90
27922;DHT22;15261;50.356;10.340;2023-01-25T07:50:40;1.30;99.90
27922;DHT22;15261;50.356;10.340;2023-01-25T07:53:07;1.30;99.90
27922;DHT22;15261;50.356;10.340;2023-01-25T07:55:32;1.40;99.90
27922;DHT22;15261;50.356;10.340;2023-01-25T07:57:58;1.50;99.90
27922;DHT22;15261;50.356;10.340;2023-01-25T08:00:25;1.50;99.90
27922;DHT22;15261;50.356;10.340;2023-01-25T08:02:51;1.40;99.90
27922;DHT22;15261;50.356;10.340;2023-01-25T08:05:17;1.50;99.90
27922;DHT22;15261;50.356;10.340;2023-01-25T08:07:42;1.50;99.90
27922;DHT22;15261;50.356;10.340;2023-01-25T08:10:08;1.50;99.90
27922;DHT22;15261;50.356;10.340;2023-01-25T08:12:34;1.30;99.90
27922;DHT22;15261;50.356;10.340;2023-01-25T08:15:00;1.10;99.90
27922;DHT22;15261;50.356;10.340;2023-01-25T08:17:25;1.00;99.90
27922;DHT22;15261;50.356;10.340;2023-01-25T08:19:57;1.00;99.90
27922;DHT22;15261;50.356;10.340;2023-01-25T08:22:23;0.80;99.90
27922;DHT22;15261;50.356;10.340;2023-01-25T08:24:49;1.00;99.90
27922;DHT22;15261;50.356;10.340;2023-01-25T08:27:15;1.20;99.90
27922;DHT22;15261;50.356;10.340;2023-01-25T08:29:40;1.30;99.90
27922;DHT22;15261;50.356;10.340;2023-01-25T08:32:06;1.50;99.90
27922;DHT22;15261;50.356;10.340;2023-01-25T08:34:32;1.50;99.90
27922;DHT22;15261;50.356;10.340;2023-01-25T08:36:59;1.50;99.90
27922;DHT22;15261;50.356;10.340;2023-01-25T08:39:24;1.30;99.90
27922;DHT22;15261;50.356;10.340;2023-01-25T08:41:50;1.10;99.90
27922;DHT22;15261;50.356;10.340;2023-01-25T08:44:16;0.90;99.90
27922;DHT22;15261;50.356;10.340;2023-01-25T08:46:46;0.90;99.90
27922;DHT22;15261;50.356;10.340;2023-01-25T08:49:12;0.80;99.90
27922;DHT22;15261;50.356;10.340;2023-01-25T08:51:38;0.90;99.90
27922;DHT22;15261;50.356;10.340;2023-01-25T08:54:08;0.70;99.90
27922;DHT22;15261;50.356;10.340;2023-01-25T08:56:41;0.90;99.90
27922;DHT22;15261;50.356;10.340;2023-01-25T08:59:09;1.10;99.90
27922;DHT22;15261;50.356;10.340;2023-01-25T09:01:35;0.90;99.90
27922;DHT22;15261;50.356;10.340;2023-01-25T09:04:01;0.90;99.90
27922;DHT22;15261;50.356;10.340;2023-01-25T09:06:26;1.00;99.90
27922;DHT22;15261;50.356;10.340;2023-01-25T09:08:52;1.20;99.90
27922;DHT22;15261;50.356;10.340;2023-01-25T09:11:19;1.10;99.90
27922;DHT22;15261;50.356;10.340;2023-01-25T09:13:46;1.10;99.90
27922;DHT22;15261;50.356;10.340;2023-01-25T09:16:15;1.10;99.90
27922;DHT22;15261;50.356;10.340;2023-01-25T09:22:23;1.50;99.90
27922;DHT22;15261;50.356;10.340;2023-01-25T09:24:48;1.30;99.90
27922;DHT22;15261;50.356;10.340;2023-01-25T09:27:16;1.40;99.90
27922;DHT22;15261;50.356;10.340;2023-01-25T09:29:42;1.40;99.90
27922;DHT22;15261;50.356;10.340;2023-01-25T09:32:07;1.10;99.90
27922;DHT22;15261;50.356;10.340;2023-01-25T09:34:33;1.00;99.90
27922;DHT22;15261;50.356;10.340;2023-01-25T09:36:58;0.80;99.90
27922;DHT22;15261;50.356;10.340;2023-01-25T09:39:24;1.00;99.90
27922;DHT22;15261;50.356;10.340;2023-01-25T09:42:29;1.10;99.90
27922;DHT22;15261;50.356;10.340;2023-01-25T09:47:54;1.10;99.90
27922;DHT22;15261;50.356;10.340;2023-01-25T09:50:33;1.30;99.90
27922;DHT22;15261;50.356;10.340;2023-01-25T09:53:26;1.50;99.90
27922;DHT22;15261;50.356;10.340;2023-01-25T09:55:58;1.50;99.90
27922;DHT22;15261;50.356;10.340;2023-01-25T09:58:30;1.50;99.90
27922;DHT22;15261;50.356;10.340;2023-01-25T10:01:19;1.50;99.90
27922;DHT22;15261;50.356;10.340;2023-01-25T10:04:05;1.60;99.90
27922;DHT22;15261;50.356;10.340;2023-01-25T10:06:39;1.60;99.90
27922;DHT22;15261;50.356;10.340;2023-01-25T10:11:52;1.60;99.90
27922;DHT22;15261;50.356;10.340;2023-01-25T10:14:18;1.60;99.90
27922;DHT22;15261;50.356;10.340;2023-01-25T10:22:13;1.60;99.90
27922;DHT22;15261;50.356;10.340;2023-01-25T10:24:45;1.70;99.90
27922;DHT22;15261;50.356;10.340;2023-01-25T10:30:29;1.80;99.90
27922;DHT22;15261;50.356;10.340;2023-01-25T10:33:00;1.80;99.90
27922;DHT22;15261;50.356;10.340;2023-01-25T10:35:29;1.80;99.90
27922;DHT22;15261;50.356;10.340;2023-01-25T10:38:04;2.00;99.90
27922;DHT22;15261;50.356;10.340;2023-01-25T10:40:38;1.90;99.90
27922;DHT22;15261;50.356;10.340;2023-01-25T10:43:17;1.90;99.90
27922;DHT22;15261;50.356;10.340;2023-01-25T10:45:44;2.00;99.90
27922;DHT22;15261;50.356;10.340;2023-01-25T10:48:31;2.10;99.90
27922;DHT22;15261;50.356;10.340;2023-01-25T10:50:58;1.80;99.90
27922;DHT22;15261;50.356;10.340;2023-01-25T10:53:31;1.70;99.90
27922;DHT22;15261;50.356;10.340;2023-01-25T10:56:05;1.80;99.90
27922;DHT22;15261;50.356;10.340;2023-01-25T10:58:42;2.00;99.90
27922;DHT22;15261;50.356;10.340;2023-01-25T11:01:22;2.10;99.90
27922;DHT22;15261;50.356;10.340;2023-01-25T11:03:48;2.00;99.90
27922;DHT22;15261;50.356;10.340;2023-01-25T11:08:55;2.30;99.90
27922;DHT22;15261;50.356;10.340;2023-01-25T11:11:36;2.30;99.90
27922;DHT22;15261;50.356;10.340;2023-01-25T11:14:14;2.10;99.90
27922;DHT22;15261;50.356;10.340;2023-01-25T11:16:46;2.20;99.90
27922;DHT22;15261;50.356;10.340;2023-01-25T11:19:35;2.10;99.90
27922;DHT22;15261;50.356;10.340;2023-01-25T11:22:04;2.00;99.90
27922;DHT22;15261;50.356;10.340;2023-01-25T11:24:33;1.90;99.90
27922;DHT22;15261;50.356;10.340;2023-01-25T11:29:43;1.90;99.90
27922;DHT22;15261;50.356;10.340;2023-01-25T11:32:19;2.00;99.90
27922;DHT22;15261;50.356;10.340;2023-01-25T11:34:46;2.10;99.90
27922;DHT22;15261;50.356;10.340;2023-01-25T11:37:29;1.90;99.90
27922;DHT22;15261;50.356;10.340;2023-01-25T11:40:09;2.00;99.90
27922;DHT22;15261;50.356;10.340;2023-01-25T11:45:29;1.90;99.90
27922;DHT22;15261;50.356;10.340;2023-01-25T11:58:32;2.10;99.90
27922;DHT22;15261;50.356;10.340;2023-01-25T12:01:30;2.20;99.90
27922;DHT22;15261;50.356;10.340;2023-01-25T12:07:09;2.10;99.90
27922;DHT22;15261;50.356;10.340;2023-01-25T12:09:58;2.10;99.90
27922;DHT22;15261;50.356;10.340;2023-01-25T12:15:58;1.80;99.90
27922;DHT22;15261;50.356;10.340;2023-01-25T12:29:37;1.80;99.90
27922;DHT22;15261;50.356;10.340;2023-01-25T12:32:22;1.60;99.90
27922;DHT22;15261;50.356;10.340;2023-01-25T12:37:42;1.60;99.90
27922;DHT22;15261;50.356;10.340;2023-01-25T12:43:04;1.70;99.90
27922;DHT22;15261;50.356;10.340;2023-01-25T12:45:36;1.70;99.90
27922;DHT22;15261;50.356;10.340;2023-01-25T12:48:18;1.80;99.90
27922;DHT22;15261;50.356;10.340;2023-01-25T12:50:56;1.70;99.90
27922;DHT22;15261;50.356;10.340;2023-01-25T12:55:51;1.90;99.90
27922;DHT22;15261;50.356;10.340;2023-01-25T13:01:48;1.80;99.90
27922;DHT22;15261;50.356;10.340;2023-01-25T13:04:53;1.90;99.90
27922;DHT22;15261;50.356;10.340;2023-01-25T13:13:24;1.80;99.90
27922;DHT22;15261;50.356;10.340;2023-01-25T13:15:52;1.80;99.90
27922;DHT22;15261;50.356;10.340;2023-01-25T13:27:47;2.00;99.90
27922;DHT22;15261;50.356;10.340;2023-01-25T13:30:33;2.10;99.90
27922;DHT22;15261;50.356;10.340;2023-01-25T13:33:31;2.10;99.90
27922;DHT22;15261;50.356;10.340;2023-01-25T13:36:35;2.20;99.90
27922;DHT22;15261;50.356;10.340;2023-01-25T13:39:20;2.10;99.90
27922;DHT22;15261;50.356;10.340;2023-01-25T13:42:24;2.10;99.90
27922;DHT22;15261;50.356;10.340;2023-01-25T13:45:25;2.10;99.90
27922;DHT22;15261;50.356;10.340;2023-01-25T13:48:13;2.00;99.90
27922;DHT22;15261;50.356;10.340;2023-01-25T13:50:56;1.90;99.90
27922;DHT22;15261;50.356;10.340;2023-01-25T13:53:25;1.90;99.90
27922;DHT22;15261;50.356;10.340;2023-01-25T13:55:56;1.80;99.90
27922;DHT22;15261;50.356;10.340;2023-01-25T13:58:30;1.80;99.90
27922;DHT22;15261;50.356;10.340;2023-01-25T14:01:17;1.90;99.90
27922;DHT22;15261;50.356;10.340;2023-01-25T14:03:49;1.70;99.90
27922;DHT22;15261;50.356;10.340;2023-01-25T14:06:24;1.40;99.90
27922;DHT22;15261;50.356;10.340;2023-01-25T14:09:11;1.60;99.90
27922;DHT22;15261;50.356;10.340;2023-01-25T14:11:48;1.50;99.90
27922;DHT22;15261;50.356;10.340;2023-01-25T14:14:24;1.40;99.90
27922;DHT22;15261;50.356;10.340;2023-01-25T14:17:14;1.50;99.90
27922;DHT22;15261;50.356;10.340;2023-01-25T14:19:43;1.40;99.90
27922;DHT22;15261;50.356;10.340;2023-01-25T14:22:29;1.50;99.90
27922;DHT22;15261;50.356;10.340;2023-01-25T14:25:13;1.50;99.90
27922;DHT22;15261;50.356;10.340;2023-01-25T14:27:46;1.50;99.90
27922;DHT22;15261;50.356;10.340;2023-01-25T14:32:57;1.50;99.90
27922;DHT22;15261;50.356;10.340;2023-01-25T14:37:58;1.50;99.90
27922;DHT22;15261;50.356;10.340;2023-01-25T14:40:28;1.60;99.90
27922;DHT22;15261;50.356;10.340;2023-01-25T14:42:55;1.60;99.90
27922;DHT22;15261;50.356;10.340;2023-01-25T14:45:22;1.70;99.90
27922;DHT22;15261;50.356;10.340;2023-01-25T14:47:52;1.70;99.90
27922;DHT22;15261;50.356;10.340;2023-01-25T14:50:35;1.60;99.90
27922;DHT22;15261;50.356;10.340;2023-01-25T14:53:15;1.70;99.90
27922;DHT22;15261;50.356;10.340;2023-01-25T14:55:44;1.70;99.90
27922;DHT22;15261;50.356;10.340;2023-01-25T14:58:20;1.40;99.90
27922;DHT22;15261;50.356;10.340;2023-01-25T15:00:53;1.50;99.90
27922;DHT22;15261;50.356;10.340;2023-01-25T15:03:19;1.40;99.90
27922;DHT22;15261;50.356;10.340;2023-01-25T15:05:48;1.40;99.90
27922;DHT22;15261;50.356;10.340;2023-01-25T15:08:43;1.40;99.90
27922;DHT22;15261;50.356;10.340;2023-01-25T15:11:33;1.40;99.90
27922;DHT22;15261;50.356;10.340;2023-01-25T15:18:30;1.50;99.90
27922;DHT22;15261;50.356;10.340;2023-01-25T15:20:51;1.50;99.90
27922;DHT22;15261;50.356;10.340;2023-01-25T15:23:39;1.50;99.90
27922;DHT22;15261;50.356;10.340;2023-01-25T15:26:21;1.50;99.90
27922;DHT22;15261;50.356;10.340;2023-01-25T15:28:52;1.30;99.90
27922;DHT22;15261;50.356;10.340;2023-01-25T15:31:30;1.20;99.90
27922;DHT22;15261;50.356;10.340;2023-01-25T15:33:57;1.30;99.90
27922;DHT22;15261;50.356;10.340;2023-01-25T15:36:24;1.20;99.90
27922;DHT22;15261;50.356;10.340;2023-01-25T15:38:50;1.10;99.90
27922;DHT22;15261;50.356;10.340;2023-01-25T15:41:20;1.20;99.90
27922;DHT22;15261;50.356;10.340;2023-01-25T15:43:52;1.20;99.90
27922;DHT22;15261;50.356;10.340;2023-01-25T15:46:34;1.20;99.90
27922;DHT22;15261;50.356;10.340;2023-01-25T15:49:09;1.30;99.90
27922;DHT22;15261;50.356;10.340;2023-01-25T15:51:41;1.40;99.90
27922;DHT22;15261;50.356;10.340;2023-01-25T15:54:12;1.40;99.90
27922;DHT22;15261;50.356;10.340;2023-01-25T15:56:39;1.50;99.90
27922;DHT22;15261;50.356;10.340;2023-01-25T15:59:33;1.40;99.90
27922;DHT22;15261;50.356;10.340;2023-01-25T16:02:01;1.50;99.90
27922;DHT22;15261;50.356;10.340;2023-01-25T16:04:41;1.40;99.90
27922;DHT22;15261;50.356;10.340;2023-01-25T16:07:22;1.50;99.90
27922;DHT22;15261;50.356;10.340;2023-01-25T16:09:48;1.40;99.90
27922;DHT22;15261;50.356;10.340;2023-01-25T16:12:18;1.40;99.90
27922;DHT22;15261;50.356;10.340;2023-01-25T16:17:20;1.10;99.90
27922;DHT22;15261;50.356;10.340;2023-01-25T16:19:48;1.00;99.90
27922;DHT22;15261;50.356;10.340;2023-01-25T16:22:14;1.10;99.90
27922;DHT22;15261;50.356;10.340;2023-01-25T16:24:56;1.10;99.90
27922;DHT22;15261;50.356;10.340;2023-01-25T16:27:22;1.20;99.90
27922;DHT22;15261;50.356;10.340;2023-01-25T16:29:53;1.20;99.90
27922;DHT22;15261;50.356;10.340;2023-01-25T16:32:19;1.20;99.90
27922;DHT22;15261;50.356;10.340;2023-01-25T16:34:45;1.20;99.90
27922;DHT22;15261;50.356;10.340;2023-01-25T16:37:14;1.20;99.90
27922;DHT22;15261;50.356;10.340;2023-01-25T16:39:40;1.30;99.90
27922;DHT22;15261;50.356;10.340;2023-01-25T16:42:08;1.30;99.90
27922;DHT22;15261;50.356;10.340;2023-01-25T16:44:34;1.20;99.90
27922;DHT22;15261;50.356;10.340;2023-01-25T16:46:59;1.30;99.90
27922;DHT22;15261;50.356;10.340;2023-01-25T16:49:34;1.30;99.90
27922;DHT22;15261;50.356;10.340;2023-01-25T16:52:10;1.30;99.90
27922;DHT22;15261;50.356;10.340;2023-01-25T16:54:36;1.20;99.90
27922;DHT22;15261;50.356;10.340;2023-01-25T16:57:06;1.10;99.90
27922;DHT22;15261;50.356;10.340;2023-01-25T16:59:33;1.10;99.90
27922;DHT22;15261;50.356;10.340;2023-01-25T17:01:59;1.00;99.90
27922;DHT22;15261;50.356;10.340;2023-01-25T17:04:30;1.00;99.90
27922;DHT22;15261;50.356;10.340;2023-01-25T17:06:56;1.00;99.90
27922;DHT22;15261;50.356;10.340;2023-01-25T17:09:25;1.00;99.90
27922;DHT22;15261;50.356;10.340;2023-01-25T17:15:12;0.80;99.90
27922;DHT22;15261;50.356;10.340;2023-01-25T17:17:38;0.70;99.90
27922;DHT22;15261;50.356;10.340;2023-01-25T17:20:04;0.70;99.90
27922;DHT22;15261;50.356;10.340;2023-01-25T17:22:30;0.80;99.90
27922;DHT22;15261;50.356;10.340;2023-01-25T17:25:02;0.80;99.90
27922;DHT22;15261;50.356;10.340;2023-01-25T17:27:28;0.80;99.90
27922;DHT22;15261;50.356;10.340;2023-01-25T17:29:54;0.80;99.90
27922;DHT22;15261;50.356;10.340;2023-01-25T17:32:27;0.90;99.90
27922;DHT22;15261;50.356;10.340;2023-01-25T17:35:03;0.90;99.90
27922;DHT22;15261;50.356;10.340;2023-01-25T17:37:37;1.00;99.90
27922;DHT22;15261;50.356;10.340;2023-01-25T17:40:18;1.00;99.90
27922;DHT22;15261;50.356;10.340;2023-01-25T17:42:44;0.90;99.90
27922;DHT22;15261;50.356;10.340;2023-01-25T17:45:15;0.90;99.90
27922;DHT22;15261;50.356;10.340;2023-01-25T17:47:41;0.90;99.90
27922;DHT22;15261;50.356;10.340;2023-01-25T17:50:07;1.00;99.90